sensor_id;sensor_type;location;lat;lon;timestamp;P1;durP1;ratioP1;P2;durP2;ratioP2
18140;SDS011;9196;49.194;12.526;2022-07-30T00:00:06;8.07;;;7.33;;
18140;SDS011;9196;49.194;12.526;2022-07-30T00:02:34;8.53;;;7.67;;
18140;SDS011;9196;49.194;12.526;2022-07-30T00:05:02;10.17;;;9.23;;
18140;SDS011;9196;49.194;12.526;2022-07-30T00:07:29;8.00;;;7.40;;
18140;SDS011;9196;49.194;12.526;2022-07-30T00:09:55;8.50;;;7.80;;
18140;SDS011;9196;49.194;12.526;2022-07-30T00:12:22;9.90;;;9.00;;
18140;SDS011;9196;49.194;12.526;2022-07-30T00:14:50;8.57;;;7.87;;
18140;SDS011;9196;49.194;12.526;2022-07-30T00:17:17;9.43;;;8.37;;
18140;SDS011;9196;49.194;12.526;2022-07-30T00:19:44;10.30;;;8.60;;
18140;SDS011;9196;49.194;12.526;2022-07-30T00:22:11;10.83;;;9.73;;
18140;SDS011;9196;49.194;12.526;2022-07-30T00:24:38;10.47;;;9.07;;
18140;SDS011;9196;49.194;12.526;2022-07-30T00:27:05;9.27;;;8.50;;
18140;SDS011;9196;49.194;12.526;2022-07-30T00:29:32;9.87;;;9.00;;
18140;SDS011;9196;49.194;12.526;2022-07-30T00:32:00;9.43;;;8.53;;
18140;SDS011;9196;49.194;12.526;2022-07-30T00:34:27;7.37;;;6.87;;
18140;SDS011;9196;49.194;12.526;2022-07-30T00:36:54;10.10;;;9.10;;
18140;SDS011;9196;49.194;12.526;2022-07-30T00:39:21;8.67;;;7.97;;
18140;SDS011;9196;49.194;12.526;2022-07-30T00:41:54;9.07;;;8.30;;
18140;SDS011;9196;49.194;12.526;2022-07-30T00:44:22;9.67;;;8.70;;
18140;SDS011;9196;49.194;12.526;2022-07-30T00:46:50;7.90;;;7.23;;
18140;SDS011;9196;49.194;12.526;2022-07-30T00:49:18;8.60;;;7.70;;
18140;SDS011;9196;49.194;12.526;2022-07-30T00:51:45;9.33;;;8.47;;
18140;SDS011;9196;49.194;12.526;2022-07-30T00:54:12;9.50;;;8.30;;
18140;SDS011;9196;49.194;12.526;2022-07-30T00:56:40;8.90;;;7.40;;
18140;SDS011;9196;49.194;12.526;2022-07-30T00:59:07;8.77;;;7.87;;
18140;SDS011;9196;49.194;12.526;2022-07-30T01:01:34;8.70;;;7.90;;
18140;SDS011;9196;49.194;12.526;2022-07-30T01:04:01;8.57;;;7.87;;
18140;SDS011;9196;49.194;12.526;2022-07-30T01:06:30;10.17;;;7.90;;
18140;SDS011;9196;49.194;12.526;2022-07-30T01:08:56;8.70;;;7.90;;
18140;SDS011;9196;49.194;12.526;2022-07-30T01:11:25;8.43;;;7.63;;
18140;SDS011;9196;49.194;12.526;2022-07-30T01:13:59;8.13;;;7.33;;
18140;SDS011;9196;49.194;12.526;2022-07-30T01:16:26;9.03;;;8.17;;
18140;SDS011;9196;49.194;12.526;2022-07-30T01:18:53;7.67;;;7.07;;
18140;SDS011;9196;49.194;12.526;2022-07-30T01:21:42;7.47;;;6.97;;
18140;SDS011;9196;49.194;12.526;2022-07-30T01:24:19;11.03;;;7.83;;
18140;SDS011;9196;49.194;12.526;2022-07-30T01:26:53;7.63;;;6.97;;
18140;SDS011;9196;49.194;12.526;2022-07-30T01:29:21;7.80;;;7.10;;
18140;SDS011;9196;49.194;12.526;2022-07-30T01:31:50;8.70;;;7.87;;
18140;SDS011;9196;49.194;12.526;2022-07-30T01:34:20;11.10;;;7.80;;
18140;SDS011;9196;49.194;12.526;2022-07-30T01:36:49;8.03;;;7.23;;
18140;SDS011;9196;49.194;12.526;2022-07-30T01:39:16;7.70;;;7.10;;
18140;SDS011;9196;49.194;12.526;2022-07-30T01:41:44;8.67;;;7.93;;
18140;SDS011;9196;49.194;12.526;2022-07-30T01:44:15;8.80;;;7.90;;
18140;SDS011;9196;49.194;12.526;2022-07-30T01:46:43;8.47;;;7.60;;
18140;SDS011;9196;49.194;12.526;2022-07-30T01:49:11;8.53;;;7.83;;
18140;SDS011;9196;49.194;12.526;2022-07-30T01:51:38;9.23;;;7.60;;
18140;SDS011;9196;49.194;12.526;2022-07-30T01:54:07;9.03;;;7.90;;
18140;SDS011;9196;49.194;12.526;2022-07-30T01:56:36;11.77;;;9.47;;
18140;SDS011;9196;49.194;12.526;2022-07-30T01:59:03;8.90;;;8.10;;
18140;SDS011;9196;49.194;12.526;2022-07-30T02:01:34;12.33;;;7.70;;
18140;SDS011;9196;49.194;12.526;2022-07-30T02:04:01;13.20;;;8.17;;
18140;SDS011;9196;49.194;12.526;2022-07-30T02:06:30;19.00;;;9.40;;
18140;SDS011;9196;49.194;12.526;2022-07-30T02:09:00;8.30;;;7.50;;
18140;SDS011;9196;49.194;12.526;2022-07-30T02:11:30;9.07;;;8.10;;
18140;SDS011;9196;49.194;12.526;2022-07-30T02:14:20;7.50;;;6.90;;
18140;SDS011;9196;49.194;12.526;2022-07-30T02:16:52;8.57;;;7.83;;
18140;SDS011;9196;49.194;12.526;2022-07-30T02:19:23;8.07;;;7.27;;
18140;SDS011;9196;49.194;12.526;2022-07-30T02:21:55;8.77;;;8.07;;
18140;SDS011;9196;49.194;12.526;2022-07-30T02:24:27;8.00;;;7.30;;
18140;SDS011;9196;49.194;12.526;2022-07-30T02:26:57;8.30;;;7.60;;
18140;SDS011;9196;49.194;12.526;2022-07-30T02:29:28;8.70;;;7.93;;
18140;SDS011;9196;49.194;12.526;2022-07-30T02:31:59;8.23;;;7.50;;
18140;SDS011;9196;49.194;12.526;2022-07-30T02:34:30;8.77;;;7.97;;
18140;SDS011;9196;49.194;12.526;2022-07-30T02:36:58;7.83;;;7.20;;
18140;SDS011;9196;49.194;12.526;2022-07-30T02:39:27;7.67;;;7.03;;
18140;SDS011;9196;49.194;12.526;2022-07-30T02:41:56;7.40;;;6.50;;
18140;SDS011;9196;49.194;12.526;2022-07-30T02:44:24;7.73;;;7.03;;
18140;SDS011;9196;49.194;12.526;2022-07-30T02:46:54;8.40;;;7.37;;
18140;SDS011;9196;49.194;12.526;2022-07-30T02:49:23;9.50;;;8.60;;
18140;SDS011;9196;49.194;12.526;2022-07-30T02:51:53;8.40;;;7.63;;
18140;SDS011;9196;49.194;12.526;2022-07-30T02:54:20;8.60;;;7.03;;
18140;SDS011;9196;49.194;12.526;2022-07-30T02:56:50;10.70;;;7.50;;
18140;SDS011;9196;49.194;12.526;2022-07-30T02:59:18;8.77;;;8.00;;
18140;SDS011;9196;49.194;12.526;2022-07-30T03:01:47;8.10;;;7.30;;
18140;SDS011;9196;49.194;12.526;2022-07-30T03:04:15;7.90;;;7.10;;
18140;SDS011;9196;49.194;12.526;2022-07-30T03:06:47;9.70;;;6.90;;
18140;SDS011;9196;49.194;12.526;2022-07-30T03:09:15;8.43;;;7.07;;
18140;SDS011;9196;49.194;12.526;2022-07-30T03:11:43;8.63;;;7.73;;
18140;SDS011;9196;49.194;12.526;2022-07-30T03:14:11;8.40;;;7.70;;
18140;SDS011;9196;49.194;12.526;2022-07-30T03:16:38;9.40;;;8.50;;
18140;SDS011;9196;49.194;12.526;2022-07-30T03:19:08;9.17;;;8.17;;
18140;SDS011;9196;49.194;12.526;2022-07-30T03:21:36;8.20;;;7.60;;
18140;SDS011;9196;49.194;12.526;2022-07-30T03:24:06;10.93;;;8.07;;
18140;SDS011;9196;49.194;12.526;2022-07-30T03:26:36;9.27;;;8.43;;
18140;SDS011;9196;49.194;12.526;2022-07-30T03:29:05;9.50;;;8.60;;
18140;SDS011;9196;49.194;12.526;2022-07-30T03:31:33;8.20;;;7.60;;
18140;SDS011;9196;49.194;12.526;2022-07-30T03:34:01;9.40;;;8.60;;
18140;SDS011;9196;49.194;12.526;2022-07-30T03:36:28;10.70;;;8.27;;
18140;SDS011;9196;49.194;12.526;2022-07-30T03:38:55;10.30;;;9.37;;
18140;SDS011;9196;49.194;12.526;2022-07-30T03:41:24;9.90;;;8.90;;
18140;SDS011;9196;49.194;12.526;2022-07-30T03:43:51;9.10;;;8.30;;
18140;SDS011;9196;49.194;12.526;2022-07-30T03:46:19;10.73;;;8.93;;
18140;SDS011;9196;49.194;12.526;2022-07-30T03:48:47;9.73;;;8.93;;
18140;SDS011;9196;49.194;12.526;2022-07-30T03:51:14;11.50;;;10.40;;
18140;SDS011;9196;49.194;12.526;2022-07-30T03:53:42;11.07;;;9.93;;
18140;SDS011;9196;49.194;12.526;2022-07-30T03:56:11;11.33;;;10.30;;
18140;SDS011;9196;49.194;12.526;2022-07-30T03:58:41;13.73;;;10.30;;
18140;SDS011;9196;49.194;12.526;2022-07-30T04:01:08;12.23;;;11.00;;
18140;SDS011;9196;49.194;12.526;2022-07-30T04:03:34;12.23;;;9.80;;
18140;SDS011;9196;49.194;12.526;2022-07-30T04:06:01;11.60;;;10.40;;
18140;SDS011;9196;49.194;12.526;2022-07-30T04:08:28;10.73;;;9.83;;
18140;SDS011;9196;49.194;12.526;2022-07-30T04:10:55;11.27;;;10.27;;
18140;SDS011;9196;49.194;12.526;2022-07-30T04:13:22;8.93;;;8.17;;
18140;SDS011;9196;49.194;12.526;2022-07-30T04:15:53;9.97;;;9.07;;
18140;SDS011;9196;49.194;12.526;2022-07-30T04:18:26;10.60;;;9.40;;
18140;SDS011;9196;49.194;12.526;2022-07-30T04:21:00;15.87;;;9.80;;
18140;SDS011;9196;49.194;12.526;2022-07-30T04:23:31;10.67;;;9.77;;
18140;SDS011;9196;49.194;12.526;2022-07-30T04:25:58;10.03;;;9.03;;
18140;SDS011;9196;49.194;12.526;2022-07-30T04:28:26;11.10;;;10.00;;
18140;SDS011;9196;49.194;12.526;2022-07-30T04:30:55;10.10;;;9.20;;
18140;SDS011;9196;49.194;12.526;2022-07-30T04:33:22;11.07;;;10.13;;
18140;SDS011;9196;49.194;12.526;2022-07-30T04:35:49;12.33;;;11.20;;
18140;SDS011;9196;49.194;12.526;2022-07-30T04:38:15;14.10;;;10.17;;
18140;SDS011;9196;49.194;12.526;2022-07-30T04:40:42;11.70;;;10.60;;
18140;SDS011;9196;49.194;12.526;2022-07-30T04:43:09;11.73;;;10.63;;
18140;SDS011;9196;49.194;12.526;2022-07-30T04:45:37;12.83;;;11.33;;
18140;SDS011;9196;49.194;12.526;2022-07-30T04:48:06;12.90;;;11.60;;
18140;SDS011;9196;49.194;12.526;2022-07-30T04:50:33;13.07;;;11.77;;
18140;SDS011;9196;49.194;12.526;2022-07-30T04:53:03;12.67;;;11.53;;
18140;SDS011;9196;49.194;12.526;2022-07-30T04:55:30;13.27;;;12.07;;
18140;SDS011;9196;49.194;12.526;2022-07-30T04:57:59;16.90;;;12.77;;
18140;SDS011;9196;49.194;12.526;2022-07-30T05:00:27;15.70;;;11.93;;
18140;SDS011;9196;49.194;12.526;2022-07-30T05:02:55;13.03;;;11.73;;
18140;SDS011;9196;49.194;12.526;2022-07-30T05:05:24;12.90;;;10.87;;
18140;SDS011;9196;49.194;12.526;2022-07-30T05:07:51;12.00;;;10.80;;
18140;SDS011;9196;49.194;12.526;2022-07-30T05:10:19;11.67;;;10.67;;
18140;SDS011;9196;49.194;12.526;2022-07-30T05:12:46;11.07;;;10.17;;
18140;SDS011;9196;49.194;12.526;2022-07-30T05:15:13;12.07;;;10.83;;
18140;SDS011;9196;49.194;12.526;2022-07-30T05:17:39;14.63;;;11.17;;
18140;SDS011;9196;49.194;12.526;2022-07-30T05:20:07;11.40;;;10.40;;
18140;SDS011;9196;49.194;12.526;2022-07-30T05:22:36;9.83;;;9.03;;
18140;SDS011;9196;49.194;12.526;2022-07-30T05:25:03;12.40;;;10.10;;
18140;SDS011;9196;49.194;12.526;2022-07-30T05:27:30;14.83;;;11.17;;
18140;SDS011;9196;49.194;12.526;2022-07-30T05:29:57;11.33;;;10.23;;
18140;SDS011;9196;49.194;12.526;2022-07-30T05:32:24;13.60;;;9.40;;
18140;SDS011;9196;49.194;12.526;2022-07-30T05:34:51;11.67;;;10.07;;
18140;SDS011;9196;49.194;12.526;2022-07-30T05:37:17;9.37;;;8.57;;
18140;SDS011;9196;49.194;12.526;2022-07-30T05:39:46;9.90;;;9.00;;
18140;SDS011;9196;49.194;12.526;2022-07-30T05:42:12;10.50;;;9.60;;
18140;SDS011;9196;49.194;12.526;2022-07-30T05:44:39;12.67;;;11.40;;
18140;SDS011;9196;49.194;12.526;2022-07-30T05:47:06;13.30;;;10.37;;
18140;SDS011;9196;49.194;12.526;2022-07-30T05:49:33;11.60;;;10.63;;
18140;SDS011;9196;49.194;12.526;2022-07-30T05:51:59;22.50;;;11.30;;
18140;SDS011;9196;49.194;12.526;2022-07-30T05:54:26;26.10;;;11.70;;
18140;SDS011;9196;49.194;12.526;2022-07-30T05:56:54;12.23;;;11.13;;
18140;SDS011;9196;49.194;12.526;2022-07-30T05:59:21;13.63;;;12.43;;
18140;SDS011;9196;49.194;12.526;2022-07-30T06:01:48;12.50;;;11.30;;
18140;SDS011;9196;49.194;12.526;2022-07-30T06:04:15;13.07;;;11.87;;
18140;SDS011;9196;49.194;12.526;2022-07-30T06:06:42;11.00;;;10.00;;
18140;SDS011;9196;49.194;12.526;2022-07-30T06:09:08;11.10;;;10.00;;
18140;SDS011;9196;49.194;12.526;2022-07-30T06:11:35;12.20;;;11.00;;
18140;SDS011;9196;49.194;12.526;2022-07-30T06:14:03;13.83;;;12.40;;
18140;SDS011;9196;49.194;12.526;2022-07-30T06:16:30;11.70;;;10.57;;
18140;SDS011;9196;49.194;12.526;2022-07-30T06:18:57;12.40;;;11.30;;
18140;SDS011;9196;49.194;12.526;2022-07-30T06:21:24;11.43;;;10.33;;
18140;SDS011;9196;49.194;12.526;2022-07-30T06:23:50;13.97;;;12.47;;
18140;SDS011;9196;49.194;12.526;2022-07-30T06:26:17;17.27;;;14.43;;
18140;SDS011;9196;49.194;12.526;2022-07-30T06:28:44;12.60;;;11.40;;
18140;SDS011;9196;49.194;12.526;2022-07-30T06:31:12;11.70;;;10.70;;
18140;SDS011;9196;49.194;12.526;2022-07-30T06:33:39;12.77;;;11.57;;
18140;SDS011;9196;49.194;12.526;2022-07-30T06:36:07;12.13;;;11.03;;
18140;SDS011;9196;49.194;12.526;2022-07-30T06:38:33;11.57;;;10.47;;
18140;SDS011;9196;49.194;12.526;2022-07-30T06:41:00;12.60;;;11.40;;
18140;SDS011;9196;49.194;12.526;2022-07-30T06:43:27;12.00;;;10.87;;
18140;SDS011;9196;49.194;12.526;2022-07-30T06:45:54;12.23;;;11.00;;
18140;SDS011;9196;49.194;12.526;2022-07-30T06:48:22;15.20;;;11.70;;
18140;SDS011;9196;49.194;12.526;2022-07-30T06:50:49;12.60;;;11.37;;
18140;SDS011;9196;49.194;12.526;2022-07-30T06:53:16;13.67;;;12.37;;
18140;SDS011;9196;49.194;12.526;2022-07-30T06:55:42;14.40;;;12.80;;
18140;SDS011;9196;49.194;12.526;2022-07-30T06:58:09;13.27;;;11.97;;
18140;SDS011;9196;49.194;12.526;2022-07-30T07:00:36;13.33;;;12.13;;
18140;SDS011;9196;49.194;12.526;2022-07-30T07:03:03;16.10;;;14.40;;
18140;SDS011;9196;49.194;12.526;2022-07-30T07:05:31;18.00;;;13.67;;
18140;SDS011;9196;49.194;12.526;2022-07-30T07:07:58;18.53;;;16.57;;
18140;SDS011;9196;49.194;12.526;2022-07-30T07:10:25;22.83;;;13.93;;
18140;SDS011;9196;49.194;12.526;2022-07-30T07:12:52;16.40;;;14.60;;
18140;SDS011;9196;49.194;12.526;2022-07-30T07:15:20;16.03;;;14.43;;
18140;SDS011;9196;49.194;12.526;2022-07-30T07:17:47;16.13;;;14.53;;
18140;SDS011;9196;49.194;12.526;2022-07-30T07:20:14;15.90;;;14.20;;
18140;SDS011;9196;49.194;12.526;2022-07-30T07:22:42;17.90;;;16.00;;
18140;SDS011;9196;49.194;12.526;2022-07-30T07:25:09;17.13;;;14.53;;
18140;SDS011;9196;49.194;12.526;2022-07-30T07:27:36;19.03;;;16.90;;
18140;SDS011;9196;49.194;12.526;2022-07-30T07:30:03;16.93;;;15.23;;
18140;SDS011;9196;49.194;12.526;2022-07-30T07:32:31;18.33;;;15.47;;
18140;SDS011;9196;49.194;12.526;2022-07-30T07:34:59;19.27;;;15.73;;
18140;SDS011;9196;49.194;12.526;2022-07-30T07:37:26;19.33;;;16.93;;
18140;SDS011;9196;49.194;12.526;2022-07-30T07:39:54;27.67;;;18.90;;
18140;SDS011;9196;49.194;12.526;2022-07-30T07:42:21;25.10;;;20.40;;
18140;SDS011;9196;49.194;12.526;2022-07-30T07:44:47;23.83;;;18.90;;
18140;SDS011;9196;49.194;12.526;2022-07-30T07:47:14;17.70;;;15.87;;
18140;SDS011;9196;49.194;12.526;2022-07-30T07:49:41;17.73;;;15.90;;
18140;SDS011;9196;49.194;12.526;2022-07-30T07:52:08;17.17;;;15.47;;
18140;SDS011;9196;49.194;12.526;2022-07-30T07:54:35;16.40;;;14.70;;
18140;SDS011;9196;49.194;12.526;2022-07-30T07:57:03;19.50;;;15.13;;
18140;SDS011;9196;49.194;12.526;2022-07-30T07:59:31;16.50;;;14.17;;
18140;SDS011;9196;49.194;12.526;2022-07-30T08:01:59;15.70;;;14.10;;
18140;SDS011;9196;49.194;12.526;2022-07-30T08:04:25;14.47;;;13.07;;
18140;SDS011;9196;49.194;12.526;2022-07-30T08:06:52;16.30;;;14.63;;
18140;SDS011;9196;49.194;12.526;2022-07-30T08:09:19;14.90;;;13.37;;
18140;SDS011;9196;49.194;12.526;2022-07-30T08:11:46;16.10;;;14.40;;
18140;SDS011;9196;49.194;12.526;2022-07-30T08:14:14;14.87;;;13.07;;
18140;SDS011;9196;49.194;12.526;2022-07-30T08:16:41;13.87;;;12.47;;
18140;SDS011;9196;49.194;12.526;2022-07-30T08:19:08;14.93;;;13.33;;
18140;SDS011;9196;49.194;12.526;2022-07-30T08:21:36;19.33;;;13.77;;
18140;SDS011;9196;49.194;12.526;2022-07-30T08:24:03;13.23;;;11.87;;
18140;SDS011;9196;49.194;12.526;2022-07-30T08:26:31;16.07;;;13.40;;
18140;SDS011;9196;49.194;12.526;2022-07-30T08:28:58;11.70;;;10.13;;
18140;SDS011;9196;49.194;12.526;2022-07-30T08:31:26;9.43;;;8.43;;
18140;SDS011;9196;49.194;12.526;2022-07-30T08:33:53;9.77;;;8.43;;
18140;SDS011;9196;49.194;12.526;2022-07-30T08:36:20;7.30;;;6.70;;
18140;SDS011;9196;49.194;12.526;2022-07-30T08:38:46;6.50;;;6.00;;
18140;SDS011;9196;49.194;12.526;2022-07-30T08:41:16;6.43;;;5.90;;
18140;SDS011;9196;49.194;12.526;2022-07-30T08:43:44;5.33;;;4.87;;
18140;SDS011;9196;49.194;12.526;2022-07-30T08:46:12;4.50;;;4.20;;
18140;SDS011;9196;49.194;12.526;2022-07-30T08:48:43;17.20;;;12.47;;
18140;SDS011;9196;49.194;12.526;2022-07-30T08:51:11;7.27;;;5.77;;
18140;SDS011;9196;49.194;12.526;2022-07-30T08:53:40;4.77;;;4.47;;
18140;SDS011;9196;49.194;12.526;2022-07-30T08:56:08;5.30;;;4.80;;
18140;SDS011;9196;49.194;12.526;2022-07-30T08:58:36;4.67;;;4.27;;
18140;SDS011;9196;49.194;12.526;2022-07-30T09:01:04;5.80;;;5.40;;
18140;SDS011;9196;49.194;12.526;2022-07-30T09:03:31;10.43;;;5.60;;
18140;SDS011;9196;49.194;12.526;2022-07-30T09:06:00;5.47;;;5.00;;
18140;SDS011;9196;49.194;12.526;2022-07-30T09:08:28;5.47;;;5.10;;
18140;SDS011;9196;49.194;12.526;2022-07-30T09:10:56;4.77;;;4.40;;
18140;SDS011;9196;49.194;12.526;2022-07-30T09:13:23;4.97;;;4.50;;
18140;SDS011;9196;49.194;12.526;2022-07-30T09:15:53;6.60;;;4.93;;
18140;SDS011;9196;49.194;12.526;2022-07-30T09:18:27;4.50;;;4.20;;
18140;SDS011;9196;49.194;12.526;2022-07-30T09:20:55;6.10;;;5.60;;
18140;SDS011;9196;49.194;12.526;2022-07-30T09:23:26;6.43;;;5.43;;
18140;SDS011;9196;49.194;12.526;2022-07-30T09:25:53;5.47;;;5.00;;
18140;SDS011;9196;49.194;12.526;2022-07-30T09:28:26;5.60;;;5.20;;
18140;SDS011;9196;49.194;12.526;2022-07-30T09:30:55;4.90;;;4.50;;
18140;SDS011;9196;49.194;12.526;2022-07-30T09:33:32;5.43;;;4.80;;
18140;SDS011;9196;49.194;12.526;2022-07-30T09:36:00;5.63;;;5.03;;
18140;SDS011;9196;49.194;12.526;2022-07-30T09:38:38;4.73;;;4.30;;
18140;SDS011;9196;49.194;12.526;2022-07-30T09:41:07;5.40;;;5.00;;
18140;SDS011;9196;49.194;12.526;2022-07-30T09:43:40;5.87;;;5.27;;
18140;SDS011;9196;49.194;12.526;2022-07-30T09:46:08;5.77;;;5.13;;
18140;SDS011;9196;49.194;12.526;2022-07-30T09:48:35;5.10;;;4.70;;
18140;SDS011;9196;49.194;12.526;2022-07-30T09:51:02;5.53;;;5.13;;
18140;SDS011;9196;49.194;12.526;2022-07-30T09:53:30;5.57;;;5.10;;
18140;SDS011;9196;49.194;12.526;2022-07-30T09:55:58;5.67;;;5.10;;
18140;SDS011;9196;49.194;12.526;2022-07-30T09:58:36;4.90;;;4.50;;
18140;SDS011;9196;49.194;12.526;2022-07-30T10:01:03;5.27;;;4.87;;
18140;SDS011;9196;49.194;12.526;2022-07-30T10:03:30;5.30;;;4.90;;
18140;SDS011;9196;49.194;12.526;2022-07-30T10:05:58;5.80;;;5.30;;
18140;SDS011;9196;49.194;12.526;2022-07-30T10:08:38;5.40;;;4.60;;
18140;SDS011;9196;49.194;12.526;2022-07-30T10:11:07;4.60;;;4.27;;
18140;SDS011;9196;49.194;12.526;2022-07-30T10:13:37;4.27;;;3.87;;
18140;SDS011;9196;49.194;12.526;2022-07-30T10:16:04;4.20;;;4.00;;
18140;SDS011;9196;49.194;12.526;2022-07-30T10:18:31;4.50;;;4.10;;
18140;SDS011;9196;49.194;12.526;2022-07-30T10:21:00;4.40;;;4.00;;
18140;SDS011;9196;49.194;12.526;2022-07-30T10:23:27;4.00;;;3.70;;
18140;SDS011;9196;49.194;12.526;2022-07-30T10:25:58;4.90;;;3.90;;
18140;SDS011;9196;49.194;12.526;2022-07-30T10:28:26;4.93;;;4.13;;
18140;SDS011;9196;49.194;12.526;2022-07-30T10:30:54;7.70;;;3.80;;
18140;SDS011;9196;49.194;12.526;2022-07-30T10:33:23;9.60;;;3.87;;
18140;SDS011;9196;49.194;12.526;2022-07-30T10:35:51;3.53;;;3.33;;
18140;SDS011;9196;49.194;12.526;2022-07-30T10:38:19;3.70;;;3.50;;
18140;SDS011;9196;49.194;12.526;2022-07-30T10:40:49;3.30;;;3.10;;
18140;SDS011;9196;49.194;12.526;2022-07-30T10:46:31;3.03;;;2.83;;
18140;SDS011;9196;49.194;12.526;2022-07-30T10:49:09;3.30;;;3.10;;
18140;SDS011;9196;49.194;12.526;2022-07-30T10:51:43;3.70;;;3.50;;
18140;SDS011;9196;49.194;12.526;2022-07-30T10:57:07;3.73;;;3.50;;
18140;SDS011;9196;49.194;12.526;2022-07-30T11:02:39;3.53;;;3.33;;
18140;SDS011;9196;49.194;12.526;2022-07-30T11:05:40;3.70;;;3.50;;
18140;SDS011;9196;49.194;12.526;2022-07-30T11:11:03;3.50;;;3.30;;
18140;SDS011;9196;49.194;12.526;2022-07-30T11:13:47;3.73;;;3.53;;
18140;SDS011;9196;49.194;12.526;2022-07-30T11:16:15;4.80;;;3.40;;
18140;SDS011;9196;49.194;12.526;2022-07-30T11:21:36;5.23;;;3.87;;
18140;SDS011;9196;49.194;12.526;2022-07-30T11:24:03;3.80;;;3.50;;
18140;SDS011;9196;49.194;12.526;2022-07-30T11:26:49;4.63;;;4.30;;
18140;SDS011;9196;49.194;12.526;2022-07-30T11:29:32;7.63;;;5.10;;
18140;SDS011;9196;49.194;12.526;2022-07-30T11:32:23;4.20;;;3.90;;
18140;SDS011;9196;49.194;12.526;2022-07-30T11:34:55;5.43;;;4.93;;
18140;SDS011;9196;49.194;12.526;2022-07-30T11:37:55;5.93;;;4.70;;
18140;SDS011;9196;49.194;12.526;2022-07-30T11:40:23;6.83;;;5.80;;
18140;SDS011;9196;49.194;12.526;2022-07-30T11:42:51;5.80;;;5.30;;
18140;SDS011;9196;49.194;12.526;2022-07-30T11:45:37;4.80;;;4.40;;
18140;SDS011;9196;49.194;12.526;2022-07-30T11:48:08;5.77;;;5.20;;
18140;SDS011;9196;49.194;12.526;2022-07-30T11:50:38;5.00;;;4.60;;
18140;SDS011;9196;49.194;12.526;2022-07-30T11:53:06;4.40;;;4.20;;
18140;SDS011;9196;49.194;12.526;2022-07-30T11:55:34;5.93;;;5.40;;
18140;SDS011;9196;49.194;12.526;2022-07-30T11:58:03;4.53;;;4.13;;
18140;SDS011;9196;49.194;12.526;2022-07-30T12:00:32;4.77;;;4.37;;
18140;SDS011;9196;49.194;12.526;2022-07-30T12:03:08;4.53;;;4.30;;
18140;SDS011;9196;49.194;12.526;2022-07-30T12:05:38;4.50;;;4.10;;
18140;SDS011;9196;49.194;12.526;2022-07-30T12:08:05;4.50;;;4.20;;
18140;SDS011;9196;49.194;12.526;2022-07-30T12:10:33;4.63;;;4.33;;
18140;SDS011;9196;49.194;12.526;2022-07-30T12:13:06;8.50;;;4.17;;
18140;SDS011;9196;49.194;12.526;2022-07-30T12:15:35;4.10;;;3.90;;
18140;SDS011;9196;49.194;12.526;2022-07-30T12:18:03;3.80;;;3.57;;
18140;SDS011;9196;49.194;12.526;2022-07-30T12:20:30;3.67;;;3.47;;
18140;SDS011;9196;49.194;12.526;2022-07-30T12:22:58;5.67;;;5.17;;
18140;SDS011;9196;49.194;12.526;2022-07-30T12:25:26;3.57;;;3.37;;
18140;SDS011;9196;49.194;12.526;2022-07-30T12:27:53;3.33;;;3.03;;
18140;SDS011;9196;49.194;12.526;2022-07-30T12:30:20;3.73;;;3.20;;
18140;SDS011;9196;49.194;12.526;2022-07-30T12:32:48;3.37;;;3.17;;
18140;SDS011;9196;49.194;12.526;2022-07-30T12:35:15;2.83;;;2.73;;
18140;SDS011;9196;49.194;12.526;2022-07-30T12:37:43;3.10;;;2.90;;
18140;SDS011;9196;49.194;12.526;2022-07-30T12:40:29;4.17;;;3.73;;
18140;SDS011;9196;49.194;12.526;2022-07-30T12:42:56;2.70;;;2.60;;
18140;SDS011;9196;49.194;12.526;2022-07-30T12:45:27;2.80;;;2.70;;
18140;SDS011;9196;49.194;12.526;2022-07-30T12:47:55;2.90;;;2.70;;
18140;SDS011;9196;49.194;12.526;2022-07-30T12:50:22;2.23;;;2.17;;
18140;SDS011;9196;49.194;12.526;2022-07-30T12:52:50;2.70;;;2.50;;
18140;SDS011;9196;49.194;12.526;2022-07-30T12:55:27;2.70;;;2.50;;
18140;SDS011;9196;49.194;12.526;2022-07-30T12:57:56;3.20;;;2.90;;
18140;SDS011;9196;49.194;12.526;2022-07-30T13:00:25;3.07;;;2.87;;
18140;SDS011;9196;49.194;12.526;2022-07-30T13:02:53;2.57;;;2.37;;
18140;SDS011;9196;49.194;12.526;2022-07-30T13:05:40;2.90;;;2.70;;
18140;SDS011;9196;49.194;12.526;2022-07-30T13:08:08;3.20;;;2.87;;
18140;SDS011;9196;49.194;12.526;2022-07-30T13:10:36;2.83;;;2.63;;
18140;SDS011;9196;49.194;12.526;2022-07-30T13:13:03;3.13;;;2.67;;
18140;SDS011;9196;49.194;12.526;2022-07-30T13:15:30;2.77;;;2.30;;
18140;SDS011;9196;49.194;12.526;2022-07-30T13:17:57;2.20;;;2.10;;
18140;SDS011;9196;49.194;12.526;2022-07-30T13:20:23;2.00;;;2.00;;
18140;SDS011;9196;49.194;12.526;2022-07-30T13:22:50;2.70;;;2.57;;
18140;SDS011;9196;49.194;12.526;2022-07-30T13:25:17;2.70;;;2.60;;
18140;SDS011;9196;49.194;12.526;2022-07-30T13:27:45;2.77;;;2.57;;
18140;SDS011;9196;49.194;12.526;2022-07-30T13:30:13;4.10;;;2.40;;
18140;SDS011;9196;49.194;12.526;2022-07-30T13:32:39;2.13;;;2.03;;
18140;SDS011;9196;49.194;12.526;2022-07-30T13:35:07;2.30;;;2.03;;
18140;SDS011;9196;49.194;12.526;2022-07-30T13:37:34;2.77;;;2.57;;
18140;SDS011;9196;49.194;12.526;2022-07-30T13:40:01;2.40;;;2.30;;
18140;SDS011;9196;49.194;12.526;2022-07-30T13:42:28;2.73;;;2.53;;
18140;SDS011;9196;49.194;12.526;2022-07-30T13:44:56;7.63;;;2.03;;
18140;SDS011;9196;49.194;12.526;2022-07-30T13:47:23;2.40;;;2.20;;
18140;SDS011;9196;49.194;12.526;2022-07-30T13:49:50;2.07;;;1.93;;
18140;SDS011;9196;49.194;12.526;2022-07-30T13:52:17;2.10;;;1.97;;
18140;SDS011;9196;49.194;12.526;2022-07-30T13:54:44;2.10;;;2.00;;
18140;SDS011;9196;49.194;12.526;2022-07-30T13:57:10;1.80;;;1.80;;
18140;SDS011;9196;49.194;12.526;2022-07-30T13:59:37;6.10;;;2.40;;
18140;SDS011;9196;49.194;12.526;2022-07-30T14:02:05;3.10;;;2.13;;
18140;SDS011;9196;49.194;12.526;2022-07-30T14:04:33;1.90;;;1.80;;
18140;SDS011;9196;49.194;12.526;2022-07-30T14:06:59;1.83;;;1.73;;
18140;SDS011;9196;49.194;12.526;2022-07-30T14:09:26;1.73;;;1.63;;
18140;SDS011;9196;49.194;12.526;2022-07-30T14:11:53;3.50;;;2.23;;
18140;SDS011;9196;49.194;12.526;2022-07-30T14:14:20;4.10;;;1.97;;
18140;SDS011;9196;49.194;12.526;2022-07-30T14:16:47;4.03;;;1.90;;
18140;SDS011;9196;49.194;12.526;2022-07-30T14:19:17;1.50;;;1.40;;
18140;SDS011;9196;49.194;12.526;2022-07-30T14:21:44;3.03;;;2.10;;
18140;SDS011;9196;49.194;12.526;2022-07-30T14:24:11;2.70;;;1.77;;
18140;SDS011;9196;49.194;12.526;2022-07-30T14:26:40;2.47;;;2.27;;
18140;SDS011;9196;49.194;12.526;2022-07-30T14:29:07;2.00;;;1.90;;
18140;SDS011;9196;49.194;12.526;2022-07-30T14:31:34;1.73;;;1.63;;
18140;SDS011;9196;49.194;12.526;2022-07-30T14:34:01;2.07;;;1.97;;
18140;SDS011;9196;49.194;12.526;2022-07-30T14:36:30;1.80;;;1.73;;
18140;SDS011;9196;49.194;12.526;2022-07-30T14:38:57;2.07;;;1.90;;
18140;SDS011;9196;49.194;12.526;2022-07-30T14:41:25;5.23;;;1.77;;
18140;SDS011;9196;49.194;12.526;2022-07-30T14:43:53;2.20;;;2.10;;
18140;SDS011;9196;49.194;12.526;2022-07-30T14:46:19;1.90;;;1.80;;
18140;SDS011;9196;49.194;12.526;2022-07-30T14:48:46;1.93;;;1.90;;
18140;SDS011;9196;49.194;12.526;2022-07-30T14:51:14;4.80;;;2.60;;
18140;SDS011;9196;49.194;12.526;2022-07-30T14:53:42;2.60;;;2.10;;
18140;SDS011;9196;49.194;12.526;2022-07-30T14:56:09;4.33;;;2.37;;
18140;SDS011;9196;49.194;12.526;2022-07-30T14:58:37;3.83;;;2.77;;
18140;SDS011;9196;49.194;12.526;2022-07-30T15:01:04;2.33;;;2.23;;